sensor_id;sensor_type;location;lat;lon;timestamp;P1;durP1;ratioP1;P2;durP2;ratioP2
19036;SDS011;9651;49.138;8.900;2024-03-02T00:03:23;22.37;;;14.87;;
19036;SDS011;9651;49.138;8.900;2024-03-02T00:07:25;22.47;;;13.47;;
19036;SDS011;9651;49.138;8.900;2024-03-02T00:11:28;21.50;;;13.03;;
19036;SDS011;9651;49.138;8.900;2024-03-02T00:19:47;20.73;;;12.87;;
19036;SDS011;9651;49.138;8.900;2024-03-02T00:23:49;22.20;;;12.93;;
19036;SDS011;9651;49.138;8.900;2024-03-02T00:27:53;24.30;;;12.53;;
19036;SDS011;9651;49.138;8.900;2024-03-02T00:31:55;24.00;;;12.93;;
19036;SDS011;9651;49.138;8.900;2024-03-02T00:35:58;24.97;;;13.67;;
19036;SDS011;9651;49.138;8.900;2024-03-02T00:40:01;27.00;;;16.27;;
19036;SDS011;9651;49.138;8.900;2024-03-02T00:44:06;27.20;;;17.00;;
19036;SDS011;9651;49.138;8.900;2024-03-02T00:48:08;31.70;;;17.87;;
19036;SDS011;9651;49.138;8.900;2024-03-02T00:52:10;27.40;;;15.53;;
19036;SDS011;9651;49.138;8.900;2024-03-02T00:56:14;26.23;;;14.70;;
19036;SDS011;9651;49.138;8.900;2024-03-02T01:00:17;22.87;;;13.60;;
19036;SDS011;9651;49.138;8.900;2024-03-02T01:04:20;23.23;;;13.10;;
19036;SDS011;9651;49.138;8.900;2024-03-02T01:08:21;21.20;;;12.70;;
19036;SDS011;9651;49.138;8.900;2024-03-02T01:12:23;20.20;;;13.33;;
19036;SDS011;9651;49.138;8.900;2024-03-02T01:16:27;20.07;;;11.80;;
19036;SDS011;9651;49.138;8.900;2024-03-02T01:20:29;18.43;;;11.13;;
19036;SDS011;9651;49.138;8.900;2024-03-02T01:24:31;19.67;;;11.33;;
19036;SDS011;9651;49.138;8.900;2024-03-02T01:28:33;21.77;;;12.07;;
19036;SDS011;9651;49.138;8.900;2024-03-02T01:32:36;19.77;;;11.57;;
19036;SDS011;9651;49.138;8.900;2024-03-02T01:36:39;20.53;;;11.67;;
19036;SDS011;9651;49.138;8.900;2024-03-02T01:40:41;19.60;;;11.37;;
19036;SDS011;9651;49.138;8.900;2024-03-02T01:44:44;18.50;;;10.07;;
19036;SDS011;9651;49.138;8.900;2024-03-02T01:48:47;15.77;;;10.20;;
19036;SDS011;9651;49.138;8.900;2024-03-02T01:52:49;17.73;;;10.33;;
19036;SDS011;9651;49.138;8.900;2024-03-02T01:56:51;15.90;;;9.40;;
19036;SDS011;9651;49.138;8.900;2024-03-02T02:00:53;17.93;;;9.63;;
19036;SDS011;9651;49.138;8.900;2024-03-02T02:04:56;15.90;;;9.27;;
19036;SDS011;9651;49.138;8.900;2024-03-02T02:08:58;15.30;;;8.30;;
19036;SDS011;9651;49.138;8.900;2024-03-02T02:13:00;16.43;;;9.37;;
19036;SDS011;9651;49.138;8.900;2024-03-02T02:17:03;17.43;;;9.90;;
19036;SDS011;9651;49.138;8.900;2024-03-02T02:21:06;15.27;;;8.97;;
19036;SDS011;9651;49.138;8.900;2024-03-02T02:25:10;14.03;;;8.63;;
19036;SDS011;9651;49.138;8.900;2024-03-02T02:29:12;12.83;;;8.63;;
19036;SDS011;9651;49.138;8.900;2024-03-02T02:33:13;15.67;;;9.60;;
19036;SDS011;9651;49.138;8.900;2024-03-02T02:37:15;17.47;;;9.73;;
19036;SDS011;9651;49.138;8.900;2024-03-02T02:41:19;15.13;;;9.17;;
19036;SDS011;9651;49.138;8.900;2024-03-02T02:45:20;16.40;;;9.77;;
19036;SDS011;9651;49.138;8.900;2024-03-02T02:49:22;15.70;;;8.87;;
19036;SDS011;9651;49.138;8.900;2024-03-02T02:53:24;14.17;;;8.87;;
19036;SDS011;9651;49.138;8.900;2024-03-02T02:57:27;14.33;;;8.73;;
19036;SDS011;9651;49.138;8.900;2024-03-02T03:01:31;15.27;;;9.33;;
19036;SDS011;9651;49.138;8.900;2024-03-02T03:05:33;14.90;;;9.50;;
19036;SDS011;9651;49.138;8.900;2024-03-02T03:09:36;15.23;;;8.37;;
19036;SDS011;9651;49.138;8.900;2024-03-02T03:13:40;16.50;;;9.90;;
19036;SDS011;9651;49.138;8.900;2024-03-02T03:17:42;17.70;;;9.90;;
19036;SDS011;9651;49.138;8.900;2024-03-02T03:21:46;15.23;;;9.80;;
19036;SDS011;9651;49.138;8.900;2024-03-02T03:25:47;13.77;;;9.17;;
19036;SDS011;9651;49.138;8.900;2024-03-02T03:29:51;15.20;;;9.90;;
19036;SDS011;9651;49.138;8.900;2024-03-02T03:33:53;16.07;;;9.93;;
19036;SDS011;9651;49.138;8.900;2024-03-02T03:37:55;19.17;;;10.13;;
19036;SDS011;9651;49.138;8.900;2024-03-02T03:41:57;16.83;;;9.27;;
19036;SDS011;9651;49.138;8.900;2024-03-02T03:46:02;19.60;;;10.60;;
19036;SDS011;9651;49.138;8.900;2024-03-02T03:50:05;19.47;;;10.93;;
19036;SDS011;9651;49.138;8.900;2024-03-02T03:54:08;14.67;;;9.73;;
19036;SDS011;9651;49.138;8.900;2024-03-02T03:58:11;15.93;;;9.63;;
19036;SDS011;9651;49.138;8.900;2024-03-02T04:02:15;19.23;;;9.27;;
19036;SDS011;9651;49.138;8.900;2024-03-02T04:06:16;18.57;;;10.07;;
19036;SDS011;9651;49.138;8.900;2024-03-02T04:10:18;14.57;;;9.23;;
19036;SDS011;9651;49.138;8.900;2024-03-02T04:14:21;16.27;;;9.40;;
19036;SDS011;9651;49.138;8.900;2024-03-02T04:18:24;15.53;;;8.70;;
19036;SDS011;9651;49.138;8.900;2024-03-02T04:22:26;12.53;;;8.00;;
19036;SDS011;9651;49.138;8.900;2024-03-02T04:26:27;15.67;;;8.33;;
19036;SDS011;9651;49.138;8.900;2024-03-02T04:30:29;15.47;;;8.97;;
19036;SDS011;9651;49.138;8.900;2024-03-02T04:34:32;14.00;;;8.40;;
19036;SDS011;9651;49.138;8.900;2024-03-02T04:38:34;14.43;;;8.67;;
19036;SDS011;9651;49.138;8.900;2024-03-02T04:42:36;13.87;;;8.37;;
19036;SDS011;9651;49.138;8.900;2024-03-02T04:46:38;14.97;;;8.73;;
19036;SDS011;9651;49.138;8.900;2024-03-02T04:50:41;14.90;;;9.50;;
19036;SDS011;9651;49.138;8.900;2024-03-02T04:54:43;13.63;;;8.33;;
19036;SDS011;9651;49.138;8.900;2024-03-02T04:58:59;16.17;;;9.33;;
19036;SDS011;9651;49.138;8.900;2024-03-02T05:03:01;16.13;;;9.60;;
19036;SDS011;9651;49.138;8.900;2024-03-02T05:07:04;14.50;;;9.03;;
19036;SDS011;9651;49.138;8.900;2024-03-02T05:11:06;16.37;;;8.87;;
19036;SDS011;9651;49.138;8.900;2024-03-02T05:15:26;15.57;;;8.83;;
19036;SDS011;9651;49.138;8.900;2024-03-02T05:19:27;12.70;;;8.50;;
19036;SDS011;9651;49.138;8.900;2024-03-02T05:23:31;15.00;;;9.30;;
19036;SDS011;9651;49.138;8.900;2024-03-02T05:27:33;17.50;;;9.27;;
19036;SDS011;9651;49.138;8.900;2024-03-02T05:31:35;15.67;;;9.77;;
19036;SDS011;9651;49.138;8.900;2024-03-02T05:35:37;17.60;;;9.83;;
19036;SDS011;9651;49.138;8.900;2024-03-02T05:39:40;15.03;;;8.83;;
19036;SDS011;9651;49.138;8.900;2024-03-02T05:43:43;16.73;;;9.63;;
19036;SDS011;9651;49.138;8.900;2024-03-02T05:47:45;16.50;;;8.77;;
19036;SDS011;9651;49.138;8.900;2024-03-02T05:51:47;16.83;;;9.33;;
19036;SDS011;9651;49.138;8.900;2024-03-02T05:55:50;15.20;;;9.20;;
19036;SDS011;9651;49.138;8.900;2024-03-02T05:59:55;17.57;;;9.90;;
19036;SDS011;9651;49.138;8.900;2024-03-02T06:03:58;15.63;;;9.23;;
19036;SDS011;9651;49.138;8.900;2024-03-02T06:07:59;17.40;;;9.53;;
19036;SDS011;9651;49.138;8.900;2024-03-02T06:12:03;17.10;;;9.63;;
19036;SDS011;9651;49.138;8.900;2024-03-02T06:16:05;17.60;;;9.67;;
19036;SDS011;9651;49.138;8.900;2024-03-02T06:20:09;18.30;;;10.63;;
19036;SDS011;9651;49.138;8.900;2024-03-02T06:24:11;17.57;;;9.73;;
19036;SDS011;9651;49.138;8.900;2024-03-02T06:28:14;20.77;;;11.63;;
19036;SDS011;9651;49.138;8.900;2024-03-02T06:32:16;18.53;;;11.10;;
19036;SDS011;9651;49.138;8.900;2024-03-02T06:36:18;19.13;;;11.00;;
19036;SDS011;9651;49.138;8.900;2024-03-02T06:40:20;21.23;;;11.67;;
19036;SDS011;9651;49.138;8.900;2024-03-02T06:44:23;20.90;;;11.53;;
19036;SDS011;9651;49.138;8.900;2024-03-02T06:48:25;20.20;;;12.37;;
19036;SDS011;9651;49.138;8.900;2024-03-02T06:52:27;18.60;;;11.53;;
19036;SDS011;9651;49.138;8.900;2024-03-02T06:56:28;18.97;;;11.73;;
19036;SDS011;9651;49.138;8.900;2024-03-02T07:00:32;20.40;;;11.73;;
19036;SDS011;9651;49.138;8.900;2024-03-02T07:04:34;21.10;;;12.27;;
19036;SDS011;9651;49.138;8.900;2024-03-02T07:08:35;21.37;;;13.00;;
19036;SDS011;9651;49.138;8.900;2024-03-02T07:12:37;20.40;;;11.97;;
19036;SDS011;9651;49.138;8.900;2024-03-02T07:16:40;16.67;;;10.80;;
19036;SDS011;9651;49.138;8.900;2024-03-02T07:20:43;21.50;;;11.67;;
19036;SDS011;9651;49.138;8.900;2024-03-02T07:24:45;21.60;;;11.67;;
19036;SDS011;9651;49.138;8.900;2024-03-02T07:28:46;17.53;;;10.30;;
19036;SDS011;9651;49.138;8.900;2024-03-02T07:32:51;19.80;;;10.37;;
19036;SDS011;9651;49.138;8.900;2024-03-02T07:36:53;18.37;;;10.10;;
19036;SDS011;9651;49.138;8.900;2024-03-02T07:40:55;14.77;;;8.40;;
19036;SDS011;9651;49.138;8.900;2024-03-02T07:44:57;18.03;;;10.40;;
19036;SDS011;9651;49.138;8.900;2024-03-02T07:49:01;16.07;;;9.30;;
19036;SDS011;9651;49.138;8.900;2024-03-02T07:53:03;17.33;;;9.90;;
19036;SDS011;9651;49.138;8.900;2024-03-02T07:57:06;16.13;;;8.70;;
19036;SDS011;9651;49.138;8.900;2024-03-02T08:01:08;15.83;;;9.00;;
19036;SDS011;9651;49.138;8.900;2024-03-02T08:05:11;16.03;;;9.30;;
19036;SDS011;9651;49.138;8.900;2024-03-02T08:09:14;18.00;;;9.73;;
19036;SDS011;9651;49.138;8.900;2024-03-02T08:13:15;16.47;;;9.93;;
19036;SDS011;9651;49.138;8.900;2024-03-02T08:17:17;16.47;;;9.00;;
19036;SDS011;9651;49.138;8.900;2024-03-02T08:21:20;25.27;;;13.30;;
19036;SDS011;9651;49.138;8.900;2024-03-02T08:25:22;18.27;;;10.53;;
19036;SDS011;9651;49.138;8.900;2024-03-02T08:29:24;15.40;;;9.20;;
19036;SDS011;9651;49.138;8.900;2024-03-02T08:33:26;19.87;;;10.93;;
19036;SDS011;9651;49.138;8.900;2024-03-02T08:37:29;15.73;;;9.40;;
19036;SDS011;9651;49.138;8.900;2024-03-02T08:41:31;14.83;;;9.83;;
19036;SDS011;9651;49.138;8.900;2024-03-02T08:45:33;18.53;;;9.13;;
19036;SDS011;9651;49.138;8.900;2024-03-02T08:49:36;10.50;;;7.07;;
19036;SDS011;9651;49.138;8.900;2024-03-02T08:53:39;11.20;;;7.20;;
19036;SDS011;9651;49.138;8.900;2024-03-02T08:57:41;11.05;;;6.57;;
19036;SDS011;9651;49.138;8.900;2024-03-02T09:01:43;9.20;;;5.82;;
19036;SDS011;9651;49.138;8.900;2024-03-02T09:05:45;8.98;;;6.05;;
19036;SDS011;9651;49.138;8.900;2024-03-02T09:09:48;9.82;;;6.18;;
19036;SDS011;9651;49.138;8.900;2024-03-02T09:13:50;8.13;;;5.95;;
19036;SDS011;9651;49.138;8.900;2024-03-02T09:17:53;9.85;;;6.38;;
19036;SDS011;9651;49.138;8.900;2024-03-02T09:21:55;9.38;;;6.25;;
19036;SDS011;9651;49.138;8.900;2024-03-02T09:26:00;8.50;;;6.30;;
19036;SDS011;9651;49.138;8.900;2024-03-02T09:30:03;9.32;;;6.45;;
19036;SDS011;9651;49.138;8.900;2024-03-02T09:34:06;10.00;;;5.18;;
19036;SDS011;9651;49.138;8.900;2024-03-02T09:38:08;6.22;;;4.95;;
19036;SDS011;9651;49.138;8.900;2024-03-02T09:42:11;6.30;;;4.72;;
19036;SDS011;9651;49.138;8.900;2024-03-02T09:46:14;7.18;;;4.93;;
19036;SDS011;9651;49.138;8.900;2024-03-02T09:50:17;7.18;;;4.93;;
19036;SDS011;9651;49.138;8.900;2024-03-02T09:54:18;6.45;;;4.95;;
19036;SDS011;9651;49.138;8.900;2024-03-02T09:58:22;5.95;;;4.72;;
19036;SDS011;9651;49.138;8.900;2024-03-02T10:02:24;13.50;;;6.70;;
19036;SDS011;9651;49.138;8.900;2024-03-02T10:06:26;7.47;;;5.28;;
19036;SDS011;9651;49.138;8.900;2024-03-02T10:10:36;6.78;;;5.32;;
19036;SDS011;9651;49.138;8.900;2024-03-02T10:14:42;5.00;;;4.25;;
19036;SDS011;9651;49.138;8.900;2024-03-02T10:18:44;6.50;;;4.78;;
19036;SDS011;9651;49.138;8.900;2024-03-02T10:22:46;5.60;;;4.22;;
19036;SDS011;9651;49.138;8.900;2024-03-02T10:26:48;5.80;;;4.88;;
19036;SDS011;9651;49.138;8.900;2024-03-02T10:30:52;5.65;;;4.40;;
19036;SDS011;9651;49.138;8.900;2024-03-02T10:34:54;5.47;;;4.13;;
19036;SDS011;9651;49.138;8.900;2024-03-02T10:38:57;5.65;;;4.28;;
19036;SDS011;9651;49.138;8.900;2024-03-02T10:43:01;8.75;;;4.45;;
19036;SDS011;9651;49.138;8.900;2024-03-02T10:47:07;6.88;;;3.78;;
19036;SDS011;9651;49.138;8.900;2024-03-02T10:51:12;4.60;;;3.70;;
19036;SDS011;9651;49.138;8.900;2024-03-02T10:55:15;3.80;;;3.17;;
19036;SDS011;9651;49.138;8.900;2024-03-02T10:59:19;4.10;;;3.70;;
19036;SDS011;9651;49.138;8.900;2024-03-02T11:03:28;4.40;;;3.80;;
19036;SDS011;9651;49.138;8.900;2024-03-02T11:07:34;5.22;;;3.88;;
19036;SDS011;9651;49.138;8.900;2024-03-02T11:11:40;3.03;;;2.67;;
19036;SDS011;9651;49.138;8.900;2024-03-02T11:15:44;5.20;;;3.58;;
19036;SDS011;9651;49.138;8.900;2024-03-02T11:19:48;4.38;;;3.60;;
19036;SDS011;9651;49.138;8.900;2024-03-02T11:23:51;5.28;;;4.47;;
19036;SDS011;9651;49.138;8.900;2024-03-02T11:27:59;4.47;;;4.07;;
19036;SDS011;9651;49.138;8.900;2024-03-02T11:32:02;3.83;;;3.42;;
19036;SDS011;9651;49.138;8.900;2024-03-02T11:36:07;3.92;;;3.55;;
19036;SDS011;9651;49.138;8.900;2024-03-02T11:40:10;4.88;;;3.63;;
19036;SDS011;9651;49.138;8.900;2024-03-02T11:44:12;4.05;;;3.35;;
19036;SDS011;9651;49.138;8.900;2024-03-02T11:48:14;4.28;;;2.88;;
19036;SDS011;9651;49.138;8.900;2024-03-02T11:52:18;3.88;;;3.30;;
19036;SDS011;9651;49.138;8.900;2024-03-02T11:56:19;4.28;;;3.17;;
19036;SDS011;9651;49.138;8.900;2024-03-02T12:00:22;2.50;;;2.30;;
19036;SDS011;9651;49.138;8.900;2024-03-02T12:04:24;3.92;;;1.60;;
19036;SDS011;9651;49.138;8.900;2024-03-02T12:08:28;1.67;;;1.33;;
19036;SDS011;9651;49.138;8.900;2024-03-02T12:12:30;1.92;;;1.35;;
19036;SDS011;9651;49.138;8.900;2024-03-02T12:16:32;2.42;;;1.30;;
19036;SDS011;9651;49.138;8.900;2024-03-02T12:20:35;2.00;;;1.58;;
19036;SDS011;9651;49.138;8.900;2024-03-02T12:24:38;2.65;;;1.60;;
19036;SDS011;9651;49.138;8.900;2024-03-02T12:28:40;2.83;;;2.30;;
19036;SDS011;9651;49.138;8.900;2024-03-02T12:32:42;3.38;;;1.50;;
19036;SDS011;9651;49.138;8.900;2024-03-02T12:36:45;1.45;;;1.30;;
19036;SDS011;9651;49.138;8.900;2024-03-02T12:40:51;1.30;;;1.20;;
19036;SDS011;9651;49.138;8.900;2024-03-02T12:44:53;1.70;;;1.60;;
19036;SDS011;9651;49.138;8.900;2024-03-02T12:48:55;1.40;;;1.20;;
19036;SDS011;9651;49.138;8.900;2024-03-02T12:52:57;1.23;;;1.10;;
19036;SDS011;9651;49.138;8.900;2024-03-02T12:57:00;1.30;;;1.00;;
19036;SDS011;9651;49.138;8.900;2024-03-02T13:01:06;2.25;;;1.38;;
19036;SDS011;9651;49.138;8.900;2024-03-02T13:05:09;1.35;;;1.02;;
19036;SDS011;9651;49.138;8.900;2024-03-02T13:09:11;1.50;;;1.00;;
19036;SDS011;9651;49.138;8.900;2024-03-02T13:13:16;3.70;;;1.23;;
19036;SDS011;9651;49.138;8.900;2024-03-02T13:17:18;1.67;;;0.88;;
19036;SDS011;9651;49.138;8.900;2024-03-02T13:21:20;1.00;;;0.90;;
19036;SDS011;9651;49.138;8.900;2024-03-02T13:25:22;2.50;;;1.00;;
19036;SDS011;9651;49.138;8.900;2024-03-02T13:29:25;2.20;;;0.90;;
19036;SDS011;9651;49.138;8.900;2024-03-02T13:33:28;1.50;;;1.00;;
19036;SDS011;9651;49.138;8.900;2024-03-02T13:37:31;1.80;;;1.23;;
19036;SDS011;9651;49.138;8.900;2024-03-02T13:41:33;4.28;;;2.13;;
19036;SDS011;9651;49.138;8.900;2024-03-02T13:45:36;2.47;;;1.70;;
19036;SDS011;9651;49.138;8.900;2024-03-02T13:49:38;1.65;;;1.33;;
19036;SDS011;9651;49.138;8.900;2024-03-02T13:53:43;3.53;;;2.13;;
19036;SDS011;9651;49.138;8.900;2024-03-02T13:57:46;3.17;;;1.17;;
19036;SDS011;9651;49.138;8.900;2024-03-02T14:01:50;0.95;;;0.80;;
19036;SDS011;9651;49.138;8.900;2024-03-02T14:05:52;1.60;;;1.20;;
19036;SDS011;9651;49.138;8.900;2024-03-02T14:09:55;1.17;;;0.90;;
19036;SDS011;9651;49.138;8.900;2024-03-02T14:13:58;3.92;;;1.10;;
19036;SDS011;9651;49.138;8.900;2024-03-02T14:18:01;1.75;;;1.23;;
19036;SDS011;9651;49.138;8.900;2024-03-02T14:22:03;2.60;;;1.10;;
19036;SDS011;9651;49.138;8.900;2024-03-02T14:26:05;1.25;;;1.00;;
19036;SDS011;9651;49.138;8.900;2024-03-02T14:30:08;9.18;;;2.10;;
19036;SDS011;9651;49.138;8.900;2024-03-02T14:34:11;3.00;;;1.85;;
19036;SDS011;9651;49.138;8.900;2024-03-02T14:38:13;3.33;;;1.88;;
19036;SDS011;9651;49.138;8.900;2024-03-02T14:42:15;1.98;;;1.20;;
19036;SDS011;9651;49.138;8.900;2024-03-02T14:46:17;2.78;;;1.77;;
19036;SDS011;9651;49.138;8.900;2024-03-02T14:50:21;1.83;;;1.40;;
19036;SDS011;9651;49.138;8.900;2024-03-02T14:54:23;1.58;;;1.27;;
19036;SDS011;9651;49.138;8.900;2024-03-02T14:58:25;1.75;;;1.05;;
19036;SDS011;9651;49.138;8.900;2024-03-02T15:02:27;2.20;;;1.10;;
19036;SDS011;9651;49.138;8.900;2024-03-02T15:06:31;2.38;;;1.20;;
19036;SDS011;9651;49.138;8.900;2024-03-02T15:10:33;1.65;;;1.25;;
19036;SDS011;9651;49.138;8.900;2024-03-02T15:14:36;1.35;;;1.10;;
19036;SDS011;9651;49.138;8.900;2024-03-02T15:18:39;1.98;;;1.30;;
19036;SDS011;9651;49.138;8.900;2024-03-02T15:22:42;2.47;;;1.10;;
19036;SDS011;9651;49.138;8.900;2024-03-02T15:26:44;5.10;;;1.30;;
19036;SDS011;9651;49.138;8.900;2024-03-02T15:30:45;1.52;;;1.10;;
19036;SDS011;9651;49.138;8.900;2024-03-02T15:34:47;4.95;;;2.13;;
19036;SDS011;9651;49.138;8.900;2024-03-02T15:38:50;1.45;;;0.90;;
19036;SDS011;9651;49.138;8.900;2024-03-02T15:42:52;3.42;;;1.63;;
19036;SDS011;9651;49.138;8.900;2024-03-02T15:46:54;2.70;;;1.35;;
19036;SDS011;9651;49.138;8.900;2024-03-02T15:50:56;3.17;;;1.58;;
19036;SDS011;9651;49.138;8.900;2024-03-02T15:54:59;3.25;;;1.98;;
19036;SDS011;9651;49.138;8.900;2024-03-02T15:59:01;3.00;;;1.60;;
19036;SDS011;9651;49.138;8.900;2024-03-02T16:03:05;3.47;;;2.03;;
19036;SDS011;9651;49.138;8.900;2024-03-02T16:07:07;3.72;;;2.47;;
19036;SDS011;9651;49.138;8.900;2024-03-02T16:11:10;9.05;;;4.88;;
19036;SDS011;9651;49.138;8.900;2024-03-02T16:15:12;10.85;;;6.57;;
19036;SDS011;9651;49.138;8.900;2024-03-02T16:19:14;12.05;;;8.02;;
19036;SDS011;9651;49.138;8.900;2024-03-02T16:23:16;10.85;;;7.72;;
19036;SDS011;9651;49.138;8.900;2024-03-02T16:27:19;9.23;;;5.57;;
19036;SDS011;9651;49.138;8.900;2024-03-02T16:31:21;8.95;;;5.03;;
19036;SDS011;9651;49.138;8.900;2024-03-02T16:35:24;7.00;;;4.47;;
19036;SDS011;9651;49.138;8.900;2024-03-02T16:39:26;7.47;;;6.00;;
19036;SDS011;9651;49.138;8.900;2024-03-02T16:43:29;5.97;;;4.57;;
19036;SDS011;9651;49.138;8.900;2024-03-02T16:47:31;5.50;;;4.03;;
19036;SDS011;9651;49.138;8.900;2024-03-02T16:51:37;11.55;;;5.93;;
19036;SDS011;9651;49.138;8.900;2024-03-02T16:55:39;10.40;;;7.80;;
19036;SDS011;9651;49.138;8.900;2024-03-02T16:59:43;10.27;;;8.35;;
19036;SDS011;9651;49.138;8.900;2024-03-02T17:03:45;9.18;;;6.97;;
19036;SDS011;9651;49.138;8.900;2024-03-02T17:07:47;8.13;;;5.30;;
19036;SDS011;9651;49.138;8.900;2024-03-02T17:11:49;10.73;;;6.85;;
19036;SDS011;9651;49.138;8.900;2024-03-02T17:39:12;20.63;;;11.32;;
19036;SDS011;9651;49.138;8.900;2024-03-02T17:43:14;14.40;;;8.60;;
19036;SDS011;9651;49.138;8.900;2024-03-02T17:47:16;11.13;;;7.97;;
19036;SDS011;9651;49.138;8.900;2024-03-02T17:51:18;11.45;;;7.35;;
19036;SDS011;9651;49.138;8.900;2024-03-02T17:55:21;13.32;;;7.82;;
19036;SDS011;9651;49.138;8.900;2024-03-02T17:59:23;15.52;;;8.40;;
19036;SDS011;9651;49.138;8.900;2024-03-02T18:03:25;15.13;;;8.98;;
19036;SDS011;9651;49.138;8.900;2024-03-02T18:07:27;19.17;;;10.70;;
19036;SDS011;9651;49.138;8.900;2024-03-02T18:11:30;7.73;;;5.50;;
19036;SDS011;9651;49.138;8.900;2024-03-02T18:15:32;5.50;;;3.85;;
19036;SDS011;9651;49.138;8.900;2024-03-02T18:19:34;6.23;;;3.37;;
19036;SDS011;9651;49.138;8.900;2024-03-02T18:23:36;4.60;;;2.63;;
19036;SDS011;9651;49.138;8.900;2024-03-02T18:27:39;4.63;;;3.00;;
19036;SDS011;9651;49.138;8.900;2024-03-02T18:31:41;3.47;;;2.60;;
19036;SDS011;9651;49.138;8.900;2024-03-02T18:35:43;4.05;;;2.75;;
19036;SDS011;9651;49.138;8.900;2024-03-02T18:39:44;4.55;;;3.75;;
19036;SDS011;9651;49.138;8.900;2024-03-02T18:43:48;7.83;;;4.27;;
19036;SDS011;9651;49.138;8.900;2024-03-02T18:47:50;7.77;;;4.93;;
19036;SDS011;9651;49.138;8.900;2024-03-02T18:51:53;14.07;;;7.03;;
19036;SDS011;9651;49.138;8.900;2024-03-02T18:55:55;9.33;;;5.43;;
19036;SDS011;9651;49.138;8.900;2024-03-02T18:59:59;7.67;;;4.90;;
19036;SDS011;9651;49.138;8.900;2024-03-02T19:04:01;8.87;;;5.70;;
19036;SDS011;9651;49.138;8.900;2024-03-02T19:08:04;7.80;;;5.40;;
19036;SDS011;9651;49.138;8.900;2024-03-02T19:12:07;8.90;;;6.07;;
19036;SDS011;9651;49.138;8.900;2024-03-02T19:16:11;10.93;;;7.10;;
19036;SDS011;9651;49.138;8.900;2024-03-02T19:20:13;13.23;;;7.40;;
19036;SDS011;9651;49.138;8.900;2024-03-02T19:24:15;13.50;;;9.57;;
19036;SDS011;9651;49.138;8.900;2024-03-02T19:28:17;10.53;;;7.53;;
19036;SDS011;9651;49.138;8.900;2024-03-02T19:32:20;16.93;;;8.43;;
19036;SDS011;9651;49.138;8.900;2024-03-02T19:36:24;14.10;;;8.48;;
19036;SDS011;9651;49.138;8.900;2024-03-02T19:40:26;16.20;;;9.30;;
19036;SDS011;9651;49.138;8.900;2024-03-02T19:44:28;18.43;;;9.40;;
19036;SDS011;9651;49.138;8.900;2024-03-02T19:48:34;15.50;;;9.23;;
19036;SDS011;9651;49.138;8.900;2024-03-02T19:52:36;15.83;;;9.83;;
19036;SDS011;9651;49.138;8.900;2024-03-02T19:56:38;16.57;;;9.67;;
19036;SDS011;9651;49.138;8.900;2024-03-02T20:00:40;15.63;;;9.90;;
19036;SDS011;9651;49.138;8.900;2024-03-02T20:04:43;16.03;;;10.27;;
19036;SDS011;9651;49.138;8.900;2024-03-02T20:08:45;16.43;;;9.87;;
19036;SDS011;9651;49.138;8.900;2024-03-02T20:12:47;16.52;;;9.70;;
19036;SDS011;9651;49.138;8.900;2024-03-02T20:16:49;18.07;;;10.27;;
19036;SDS011;9651;49.138;8.900;2024-03-02T20:20:52;15.77;;;9.40;;
19036;SDS011;9651;49.138;8.900;2024-03-02T20:24:55;13.23;;;9.53;;
19036;SDS011;9651;49.138;8.900;2024-03-02T20:28:57;17.27;;;10.47;;
19036;SDS011;9651;49.138;8.900;2024-03-02T20:32:58;23.30;;;12.13;;
19036;SDS011;9651;49.138;8.900;2024-03-02T20:37:02;20.30;;;11.77;;
19036;SDS011;9651;49.138;8.900;2024-03-02T20:41:04;19.17;;;13.00;;
19036;SDS011;9651;49.138;8.900;2024-03-02T20:45:06;20.67;;;12.10;;
19036;SDS011;9651;49.138;8.900;2024-03-02T20:49:09;20.53;;;11.87;;
19036;SDS011;9651;49.138;8.900;2024-03-02T20:53:12;20.30;;;11.93;;
19036;SDS011;9651;49.138;8.900;2024-03-02T20:57:14;19.80;;;12.20;;
19036;SDS011;9651;49.138;8.900;2024-03-02T21:01:16;23.27;;;13.67;;
19036;SDS011;9651;49.138;8.900;2024-03-02T21:05:18;24.20;;;13.60;;
19036;SDS011;9651;49.138;8.900;2024-03-02T21:09:22;27.03;;;15.40;;
19036;SDS011;9651;49.138;8.900;2024-03-02T21:13:24;26.27;;;15.80;;
19036;SDS011;9651;49.138;8.900;2024-03-02T21:17:26;28.53;;;14.77;;
19036;SDS011;9651;49.138;8.900;2024-03-02T21:21:29;27.10;;;15.10;;
19036;SDS011;9651;49.138;8.900;2024-03-02T21:25:32;25.70;;;14.70;;
19036;SDS011;9651;49.138;8.900;2024-03-02T21:29:35;23.37;;;14.70;;
19036;SDS011;9651;49.138;8.900;2024-03-02T21:33:37;24.37;;;14.83;;
19036;SDS011;9651;49.138;8.900;2024-03-02T21:37:39;29.60;;;17.20;;
19036;SDS011;9651;49.138;8.900;2024-03-02T21:41:42;26.37;;;15.10;;
19036;SDS011;9651;49.138;8.900;2024-03-02T21:45:44;25.80;;;14.53;;
19036;SDS011;9651;49.138;8.900;2024-03-02T21:49:46;26.77;;;14.93;;
19036;SDS011;9651;49.138;8.900;2024-03-02T21:53:48;26.87;;;15.20;;
19036;SDS011;9651;49.138;8.900;2024-03-02T21:57:51;26.50;;;16.37;;
19036;SDS011;9651;49.138;8.900;2024-03-02T22:01:54;26.37;;;14.17;;
19036;SDS011;9651;49.138;8.900;2024-03-02T22:05:56;23.47;;;14.37;;
19036;SDS011;9651;49.138;8.900;2024-03-02T22:09:58;25.23;;;14.17;;
19036;SDS011;9651;49.138;8.900;2024-03-02T22:14:02;22.23;;;13.50;;
19036;SDS011;9651;49.138;8.900;2024-03-02T22:18:04;23.17;;;14.03;;
19036;SDS011;9651;49.138;8.900;2024-03-02T22:22:05;26.97;;;14.43;;
19036;SDS011;9651;49.138;8.900;2024-03-02T22:26:07;25.37;;;14.57;;
19036;SDS011;9651;49.138;8.900;2024-03-02T22:30:11;26.67;;;14.50;;
19036;SDS011;9651;49.138;8.900;2024-03-02T22:34:13;26.10;;;13.67;;
19036;SDS011;9651;49.138;8.900;2024-03-02T22:38:14;24.17;;;13.17;;
19036;SDS011;9651;49.138;8.900;2024-03-02T22:42:16;22.27;;;12.87;;
19036;SDS011;9651;49.138;8.900;2024-03-02T22:46:20;24.27;;;13.23;;
19036;SDS011;9651;49.138;8.900;2024-03-02T22:50:22;26.17;;;14.40;;
19036;SDS011;9651;49.138;8.900;2024-03-02T22:54:24;24.83;;;13.90;;
19036;SDS011;9651;49.138;8.900;2024-03-02T22:58:26;24.67;;;13.47;;
19036;SDS011;9651;49.138;8.900;2024-03-02T23:02:30;22.80;;;13.53;;
19036;SDS011;9651;49.138;8.900;2024-03-02T23:06:32;24.63;;;12.97;;
19036;SDS011;9651;49.138;8.900;2024-03-02T23:10:34;27.03;;;13.97;;
19036;SDS011;9651;49.138;8.900;2024-03-02T23:14:35;26.23;;;14.37;;
19036;SDS011;9651;49.138;8.900;2024-03-02T23:18:39;26.13;;;13.80;;
19036;SDS011;9651;49.138;8.900;2024-03-02T23:22:42;25.27;;;15.50;;
19036;SDS011;9651;49.138;8.900;2024-03-02T23:26:44;26.03;;;14.50;;
19036;SDS011;9651;49.138;8.900;2024-03-02T23:30:46;25.13;;;13.90;;
19036;SDS011;9651;49.138;8.900;2024-03-02T23:34:50;25.37;;;14.80;;
19036;SDS011;9651;49.138;8.900;2024-03-02T23:38:51;26.10;;;14.67;;
19036;SDS011;9651;49.138;8.900;2024-03-02T23:42:54;25.60;;;13.70;;
19036;SDS011;9651;49.138;8.900;2024-03-02T23:46:56;30.87;;;15.67;;
19036;SDS011;9651;49.138;8.900;2024-03-02T23:50:59;24.77;;;13.63;;
19036;SDS011;9651;49.138;8.900;2024-03-02T23:55:02;26.50;;;14.10;;
19036;SDS011;9651;49.138;8.900;2024-03-02T23:59:04;25.23;;;14.23;;
